sensor_id;sensor_type;location;lat;lon;timestamp;pressure;altitude;pressure_sealevel;temperature;humidity
77325;BME280;66387;53.440;10.390;2023-02-26T00:00:05;100954.34;;;-0.55;85.85
77325;BME280;66387;53.440;10.390;2023-02-26T00:02:34;100961.19;;;-0.54;86.52
77325;BME280;66387;53.440;10.390;2023-02-26T00:05:01;100950.78;;;-0.60;87.11
77325;BME280;66387;53.440;10.390;2023-02-26T00:07:26;100954.19;;;-0.59;87.62
77325;BME280;66387;53.440;10.390;2023-02-26T00:09:53;100959.88;;;-0.66;87.61
77325;BME280;66387;53.440;10.390;2023-02-26T00:12:19;100961.38;;;-0.71;87.29
77325;BME280;66387;53.440;10.390;2023-02-26T00:14:45;100965.50;;;-0.75;87.05
77325;BME280;66387;53.440;10.390;2023-02-26T00:17:28;100971.25;;;-0.80;87.22
77325;BME280;66387;53.440;10.390;2023-02-26T00:19:56;100970.69;;;-0.72;86.33
77325;BME280;66387;53.440;10.390;2023-02-26T00:22:21;100966.66;;;-0.67;86.10
77325;BME280;66387;53.440;10.390;2023-02-26T00:24:47;100972.38;;;-0.72;86.02
77325;BME280;66387;53.440;10.390;2023-02-26T00:27:12;100980.09;;;-0.71;85.78
77325;BME280;66387;53.440;10.390;2023-02-26T00:29:38;100976.78;;;-0.68;85.71
77325;BME280;66387;53.440;10.390;2023-02-26T00:32:04;100981.88;;;-0.68;84.89
77325;BME280;66387;53.440;10.390;2023-02-26T00:34:30;100980.78;;;-0.75;84.77
77325;BME280;66387;53.440;10.390;2023-02-26T00:37:14;100978.72;;;-0.85;84.56
77325;BME280;66387;53.440;10.390;2023-02-26T00:40:02;100987.03;;;-0.89;83.90
77325;BME280;66387;53.440;10.390;2023-02-26T00:42:33;100988.78;;;-0.88;83.65
77325;BME280;66387;53.440;10.390;2023-02-26T00:44:58;100994.72;;;-0.87;83.64
77325;BME280;66387;53.440;10.390;2023-02-26T00:47:46;101000.88;;;-0.82;82.98
77325;BME280;66387;53.440;10.390;2023-02-26T00:50:24;101005.94;;;-0.84;83.36
77325;BME280;66387;53.440;10.390;2023-02-26T00:55:34;101007.19;;;-0.95;82.46
77325;BME280;66387;53.440;10.390;2023-02-26T00:57:59;101017.25;;;-0.98;82.23
77325;BME280;66387;53.440;10.390;2023-02-26T01:00:24;101018.00;;;-1.01;82.34
77325;BME280;66387;53.440;10.390;2023-02-26T01:02:50;101027.22;;;-1.04;82.94
77325;BME280;66387;53.440;10.390;2023-02-26T01:05:16;101027.22;;;-1.04;82.67
77325;BME280;66387;53.440;10.390;2023-02-26T01:07:51;101025.22;;;-1.11;81.94
77325;BME280;66387;53.440;10.390;2023-02-26T01:10:18;101028.53;;;-1.14;81.65
77325;BME280;66387;53.440;10.390;2023-02-26T01:12:44;101024.88;;;-1.20;81.46
77325;BME280;66387;53.440;10.390;2023-02-26T01:15:10;101024.91;;;-1.19;81.22
77325;BME280;66387;53.440;10.390;2023-02-26T01:17:55;101019.69;;;-1.22;80.15
77325;BME280;66387;53.440;10.390;2023-02-26T01:20:23;101026.16;;;-1.30;80.87
77325;BME280;66387;53.440;10.390;2023-02-26T01:22:59;101028.59;;;-1.33;80.19
77325;BME280;66387;53.440;10.390;2023-02-26T01:25:47;101029.19;;;-1.38;80.10
77325;BME280;66387;53.440;10.390;2023-02-26T01:28:14;101031.28;;;-1.49;79.46
77325;BME280;66387;53.440;10.390;2023-02-26T01:30:40;101030.81;;;-1.40;79.39
77325;BME280;66387;53.440;10.390;2023-02-26T01:33:40;101038.13;;;-1.48;78.97
77325;BME280;66387;53.440;10.390;2023-02-26T01:36:13;101043.66;;;-1.58;78.61
77325;BME280;66387;53.440;10.390;2023-02-26T01:39:05;101042.22;;;-1.52;78.26
77325;BME280;66387;53.440;10.390;2023-02-26T01:41:42;101042.22;;;-1.52;78.27
77325;BME280;66387;53.440;10.390;2023-02-26T01:47:09;101046.75;;;-1.65;77.90
77325;BME280;66387;53.440;10.390;2023-02-26T01:49:36;101038.97;;;-1.68;78.11
77325;BME280;66387;53.440;10.390;2023-02-26T01:52:04;101044.13;;;-1.67;77.75
77325;BME280;66387;53.440;10.390;2023-02-26T01:54:35;101056.72;;;-1.70;78.04
77325;BME280;66387;53.440;10.390;2023-02-26T01:57:07;101053.09;;;-1.75;77.78
77325;BME280;66387;53.440;10.390;2023-02-26T01:59:35;101055.38;;;-1.81;77.13
77325;BME280;66387;53.440;10.390;2023-02-26T02:02:03;101059.47;;;-1.84;76.99
77325;BME280;66387;53.440;10.390;2023-02-26T02:04:29;101064.91;;;-1.77;76.59
77325;BME280;66387;53.440;10.390;2023-02-26T02:06:55;101062.75;;;-1.87;76.75
77325;BME280;66387;53.440;10.390;2023-02-26T02:09:21;101069.72;;;-1.83;76.30
77325;BME280;66387;53.440;10.390;2023-02-26T02:11:56;101067.19;;;-1.83;76.56
77325;BME280;66387;53.440;10.390;2023-02-26T02:17:02;101077.91;;;-1.90;76.42
77325;BME280;66387;53.440;10.390;2023-02-26T02:19:58;101085.19;;;-1.98;75.73
77325;BME280;66387;53.440;10.390;2023-02-26T02:31:24;101098.09;;;-1.93;73.82
77325;BME280;66387;53.440;10.390;2023-02-26T02:33:54;101102.50;;;-1.89;73.37
77325;BME280;66387;53.440;10.390;2023-02-26T02:36:28;101100.84;;;-1.88;73.77
77325;BME280;66387;53.440;10.390;2023-02-26T02:39:04;101103.72;;;-1.81;73.77
77325;BME280;66387;53.440;10.390;2023-02-26T02:41:52;101101.31;;;-1.78;73.12
77325;BME280;66387;53.440;10.390;2023-02-26T02:44:22;101109.91;;;-1.76;73.49
77325;BME280;66387;53.440;10.390;2023-02-26T02:46:51;101111.03;;;-1.69;73.39
77325;BME280;66387;53.440;10.390;2023-02-26T02:49:24;101120.47;;;-1.67;72.63
77325;BME280;66387;53.440;10.390;2023-02-26T02:51:59;101121.28;;;-1.68;72.75
77325;BME280;66387;53.440;10.390;2023-02-26T02:54:32;101126.72;;;-1.79;73.55
77325;BME280;66387;53.440;10.390;2023-02-26T02:57:13;101135.41;;;-1.74;73.80
77325;BME280;66387;53.440;10.390;2023-02-26T02:59:44;101126.88;;;-1.75;73.42
77325;BME280;66387;53.440;10.390;2023-02-26T03:02:16;101140.50;;;-1.74;73.44
77325;BME280;66387;53.440;10.390;2023-02-26T03:04:42;101146.66;;;-1.69;73.17
77325;BME280;66387;53.440;10.390;2023-02-26T03:07:08;101134.53;;;-1.75;73.27
77325;BME280;66387;53.440;10.390;2023-02-26T03:09:33;101142.03;;;-1.78;73.60
77325;BME280;66387;53.440;10.390;2023-02-26T03:11:59;101142.84;;;-1.79;73.36
77325;BME280;66387;53.440;10.390;2023-02-26T03:14:25;101153.03;;;-1.79;73.76
77325;BME280;66387;53.440;10.390;2023-02-26T03:17:10;101164.44;;;-1.88;74.30
77325;BME280;66387;53.440;10.390;2023-02-26T03:19:58;101171.38;;;-1.86;73.98
77325;BME280;66387;53.440;10.390;2023-02-26T03:25:20;101177.16;;;-1.88;74.44
77325;BME280;66387;53.440;10.390;2023-02-26T03:28:03;101179.94;;;-1.84;73.66
77325;BME280;66387;53.440;10.390;2023-02-26T03:31:03;101188.34;;;-1.85;74.11
77325;BME280;66387;53.440;10.390;2023-02-26T03:36:19;101191.28;;;-1.95;73.72
77325;BME280;66387;53.440;10.390;2023-02-26T03:38:54;101193.25;;;-1.89;73.78
77325;BME280;66387;53.440;10.390;2023-02-26T03:41:33;101200.38;;;-2.00;74.31
77325;BME280;66387;53.440;10.390;2023-02-26T03:44:12;101201.06;;;-2.04;74.35
77325;BME280;66387;53.440;10.390;2023-02-26T03:46:44;101204.66;;;-1.99;74.61
77325;BME280;66387;53.440;10.390;2023-02-26T03:49:14;101212.81;;;-2.06;74.28
77325;BME280;66387;53.440;10.390;2023-02-26T03:51:43;101217.25;;;-2.02;74.08
77325;BME280;66387;53.440;10.390;2023-02-26T03:54:18;101217.75;;;-2.09;74.34
77325;BME280;66387;53.440;10.390;2023-02-26T03:56:46;101222.19;;;-2.05;74.39
77325;BME280;66387;53.440;10.390;2023-02-26T03:59:13;101226.31;;;-2.07;74.30
77325;BME280;66387;53.440;10.390;2023-02-26T04:01:50;101228.06;;;-2.06;74.49
77325;BME280;66387;53.440;10.390;2023-02-26T04:04:49;101230.63;;;-2.06;74.60
77325;BME280;66387;53.440;10.390;2023-02-26T04:07:17;101240.66;;;-2.09;74.40
77325;BME280;66387;53.440;10.390;2023-02-26T04:09:46;101243.06;;;-2.12;74.85
77325;BME280;66387;53.440;10.390;2023-02-26T04:12:12;101246.91;;;-2.20;75.51
77325;BME280;66387;53.440;10.390;2023-02-26T04:14:37;101245.78;;;-2.25;75.31
77325;BME280;66387;53.440;10.390;2023-02-26T04:17:03;101247.56;;;-2.24;75.39
77325;BME280;66387;53.440;10.390;2023-02-26T04:19:28;101251.84;;;-2.23;75.30
77325;BME280;66387;53.440;10.390;2023-02-26T04:21:53;101250.75;;;-2.28;74.97
77325;BME280;66387;53.440;10.390;2023-02-26T04:24:19;101256.94;;;-2.23;75.65
77325;BME280;66387;53.440;10.390;2023-02-26T04:26:44;101263.28;;;-2.15;75.36
77325;BME280;66387;53.440;10.390;2023-02-26T04:29:10;101263.09;;;-2.18;75.47
77325;BME280;66387;53.440;10.390;2023-02-26T04:31:35;101265.25;;;-2.26;75.17
77325;BME280;66387;53.440;10.390;2023-02-26T04:34:00;101270.28;;;-2.27;75.59
77325;BME280;66387;53.440;10.390;2023-02-26T04:36:26;101271.22;;;-2.25;75.61
77325;BME280;66387;53.440;10.390;2023-02-26T04:38:51;101274.59;;;-2.26;75.59
77325;BME280;66387;53.440;10.390;2023-02-26T04:41:16;101276.03;;;-2.31;75.24
77325;BME280;66387;53.440;10.390;2023-02-26T04:43:41;101274.13;;;-2.35;76.23
77325;BME280;66387;53.440;10.390;2023-02-26T04:46:07;101290.03;;;-2.39;76.13
77325;BME280;66387;53.440;10.390;2023-02-26T04:48:32;101287.34;;;-2.42;76.61
77325;BME280;66387;53.440;10.390;2023-02-26T04:50:58;101301.84;;;-2.40;75.73
77325;BME280;66387;53.440;10.390;2023-02-26T04:53:23;101296.34;;;-2.49;76.40
77325;BME280;66387;53.440;10.390;2023-02-26T04:55:48;101297.75;;;-2.54;76.02
77325;BME280;66387;53.440;10.390;2023-02-26T04:58:14;101293.66;;;-2.52;76.75
77325;BME280;66387;53.440;10.390;2023-02-26T05:00:39;101302.19;;;-2.50;76.28
77325;BME280;66387;53.440;10.390;2023-02-26T05:03:05;101304.50;;;-2.55;76.26
77325;BME280;66387;53.440;10.390;2023-02-26T05:05:31;101304.50;;;-2.55;76.14
77325;BME280;66387;53.440;10.390;2023-02-26T05:07:56;101308.66;;;-2.57;76.15
77325;BME280;66387;53.440;10.390;2023-02-26T05:10:22;101313.00;;;-2.54;76.07
77325;BME280;66387;53.440;10.390;2023-02-26T05:12:48;101318.66;;;-2.60;76.56
77325;BME280;66387;53.440;10.390;2023-02-26T05:15:13;101314.53;;;-2.58;76.24
77325;BME280;66387;53.440;10.390;2023-02-26T05:17:38;101313.44;;;-2.63;76.19
77325;BME280;66387;53.440;10.390;2023-02-26T05:20:05;101315.00;;;-2.65;76.84
77325;BME280;66387;53.440;10.390;2023-02-26T05:22:34;101320.44;;;-2.75;76.43
77325;BME280;66387;53.440;10.390;2023-02-26T05:24:59;101328.06;;;-2.75;76.66
77325;BME280;66387;53.440;10.390;2023-02-26T05:27:25;101322.66;;;-2.81;77.13
77325;BME280;66387;53.440;10.390;2023-02-26T05:29:50;101320.91;;;-2.82;76.44
77325;BME280;66387;53.440;10.390;2023-02-26T05:32:15;101332.16;;;-2.77;77.18
77325;BME280;66387;53.440;10.390;2023-02-26T05:34:40;101328.38;;;-2.85;76.47
77325;BME280;66387;53.440;10.390;2023-02-26T05:37:06;101332.97;;;-2.78;76.68
77325;BME280;66387;53.440;10.390;2023-02-26T05:39:31;101337.03;;;-2.81;77.14
77325;BME280;66387;53.440;10.390;2023-02-26T05:41:56;101333.53;;;-2.83;77.28
77325;BME280;66387;53.440;10.390;2023-02-26T05:44:22;101352.59;;;-2.91;76.87
77325;BME280;66387;53.440;10.390;2023-02-26T05:46:48;101349.09;;;-2.93;77.18
77325;BME280;66387;53.440;10.390;2023-02-26T05:49:13;101351.22;;;-3.01;77.31
77325;BME280;66387;53.440;10.390;2023-02-26T05:51:38;101355.69;;;-2.97;76.76
77325;BME280;66387;53.440;10.390;2023-02-26T05:54:04;101359.16;;;-2.95;77.16
77325;BME280;66387;53.440;10.390;2023-02-26T05:56:30;101361.78;;;-2.93;77.31
77325;BME280;66387;53.440;10.390;2023-02-26T05:58:56;101366.00;;;-2.94;77.14
77325;BME280;66387;53.440;10.390;2023-02-26T06:01:21;101364.22;;;-2.95;76.58
77325;BME280;66387;53.440;10.390;2023-02-26T06:03:46;101359.88;;;-2.98;77.08
77325;BME280;66387;53.440;10.390;2023-02-26T06:06:12;101375.69;;;-3.03;77.19
77325;BME280;66387;53.440;10.390;2023-02-26T06:08:40;101373.19;;;-3.02;77.18
77325;BME280;66387;53.440;10.390;2023-02-26T06:11:05;101388.44;;;-3.02;77.08
77325;BME280;66387;53.440;10.390;2023-02-26T06:13:30;101377.25;;;-3.05;77.52
77325;BME280;66387;53.440;10.390;2023-02-26T06:15:56;101390.75;;;-3.06;77.14
77325;BME280;66387;53.440;10.390;2023-02-26T06:18:21;101389.47;;;-2.98;77.21
77325;BME280;66387;53.440;10.390;2023-02-26T06:20:47;101393.63;;;-3.00;77.01
77325;BME280;66387;53.440;10.390;2023-02-26T06:23:12;101396.78;;;-3.04;76.91
77325;BME280;66387;53.440;10.390;2023-02-26T06:25:39;101401.72;;;-2.91;76.88
77325;BME280;66387;53.440;10.390;2023-02-26T06:28:04;101408.94;;;-2.82;76.20
77325;BME280;66387;53.440;10.390;2023-02-26T06:30:30;101411.41;;;-2.84;76.36
77325;BME280;66387;53.440;10.390;2023-02-26T06:32:55;101403.00;;;-2.83;76.13
77325;BME280;66387;53.440;10.390;2023-02-26T06:35:20;101408.94;;;-2.82;75.91
77325;BME280;66387;53.440;10.390;2023-02-26T06:37:46;101420.94;;;-2.80;75.56
77325;BME280;66387;53.440;10.390;2023-02-26T06:40:11;101423.97;;;-2.71;75.57
77325;BME280;66387;53.440;10.390;2023-02-26T06:42:37;101424.59;;;-2.75;75.85
77325;BME280;66387;53.440;10.390;2023-02-26T06:45:03;101434.03;;;-2.72;75.80
77325;BME280;66387;53.440;10.390;2023-02-26T06:47:28;101441.34;;;-2.62;75.06
77325;BME280;66387;53.440;10.390;2023-02-26T06:49:53;101455.03;;;-2.60;74.91
77325;BME280;66387;53.440;10.390;2023-02-26T06:52:19;101455.91;;;-2.60;74.82
77325;BME280;66387;53.440;10.390;2023-02-26T06:54:44;101461.78;;;-2.61;75.02
77325;BME280;66387;53.440;10.390;2023-02-26T06:57:09;101458.53;;;-2.58;74.55
77325;BME280;66387;53.440;10.390;2023-02-26T06:59:35;101462.19;;;-2.53;74.93
77325;BME280;66387;53.440;10.390;2023-02-26T07:02:00;101464.09;;;-2.49;74.23
77325;BME280;66387;53.440;10.390;2023-02-26T07:04:25;101464.34;;;-2.44;74.02
77325;BME280;66387;53.440;10.390;2023-02-26T07:06:51;101469.66;;;-2.40;74.23
77325;BME280;66387;53.440;10.390;2023-02-26T07:09:16;101473.47;;;-2.32;73.84
77325;BME280;66387;53.440;10.390;2023-02-26T07:11:43;101473.56;;;-2.30;73.66
77325;BME280;66387;53.440;10.390;2023-02-26T07:14:08;101484.19;;;-2.21;73.14
77325;BME280;66387;53.440;10.390;2023-02-26T07:16:34;101485.94;;;-2.20;73.25
77325;BME280;66387;53.440;10.390;2023-02-26T07:18:59;101484.59;;;-2.14;72.95
77325;BME280;66387;53.440;10.390;2023-02-26T07:21:24;101489.53;;;-2.01;73.19
77325;BME280;66387;53.440;10.390;2023-02-26T07:23:50;101490.06;;;-2.06;73.04
77325;BME280;66387;53.440;10.390;2023-02-26T07:26:15;101497.38;;;-1.96;73.10
77325;BME280;66387;53.440;10.390;2023-02-26T07:28:41;101498.19;;;-1.97;72.38
77325;BME280;66387;53.440;10.390;2023-02-26T07:31:06;101518.53;;;-1.97;72.88
77325;BME280;66387;53.440;10.390;2023-02-26T07:33:32;101522.34;;;-1.89;73.08
77325;BME280;66387;53.440;10.390;2023-02-26T07:35:59;101522.97;;;-1.77;72.51
77325;BME280;66387;53.440;10.390;2023-02-26T07:38:24;101525.81;;;-1.71;72.81
77325;BME280;66387;53.440;10.390;2023-02-26T07:40:49;101537.75;;;-1.54;74.67
77325;BME280;66387;53.440;10.390;2023-02-26T07:43:15;101534.38;;;-1.53;72.26
77325;BME280;66387;53.440;10.390;2023-02-26T07:45:40;101532.78;;;-1.51;72.23
77325;BME280;66387;53.440;10.390;2023-02-26T07:48:05;101540.06;;;-1.40;71.29
77325;BME280;66387;53.440;10.390;2023-02-26T07:50:30;101538.78;;;-1.32;71.41
77325;BME280;66387;53.440;10.390;2023-02-26T07:52:57;101534.63;;;-1.30;71.57
77325;BME280;66387;53.440;10.390;2023-02-26T07:55:22;101537.81;;;-1.34;71.40
77325;BME280;66387;53.440;10.390;2023-02-26T07:57:48;101545.06;;;-1.26;71.41
77325;BME280;66387;53.440;10.390;2023-02-26T08:00:14;101544.41;;;-1.22;71.51
77325;BME280;66387;53.440;10.390;2023-02-26T08:02:40;101548.91;;;-1.16;71.38
77325;BME280;66387;53.440;10.390;2023-02-26T08:05:05;101540.34;;;-1.18;71.00
77325;BME280;66387;53.440;10.390;2023-02-26T08:07:30;101551.94;;;-1.07;70.36
77325;BME280;66387;53.440;10.390;2023-02-26T08:09:56;101557.44;;;-0.98;70.30
77325;BME280;66387;53.440;10.390;2023-02-26T08:12:21;101560.22;;;-0.93;70.72
77325;BME280;66387;53.440;10.390;2023-02-26T08:14:46;101561.59;;;-0.82;70.52
77325;BME280;66387;53.440;10.390;2023-02-26T08:17:12;101547.69;;;-0.71;70.67
77325;BME280;66387;53.440;10.390;2023-02-26T08:19:37;101555.44;;;-0.70;70.44
77325;BME280;66387;53.440;10.390;2023-02-26T08:22:03;101556.41;;;-0.48;70.23
77325;BME280;66387;53.440;10.390;2023-02-26T08:24:28;101563.09;;;-0.33;69.07
77325;BME280;66387;53.440;10.390;2023-02-26T08:26:53;101573.63;;;-0.25;69.78
77325;BME280;66387;53.440;10.390;2023-02-26T08:29:19;101563.84;;;-0.16;69.72
77325;BME280;66387;53.440;10.390;2023-02-26T08:31:44;101568.34;;;-0.11;69.28
77325;BME280;66387;53.440;10.390;2023-02-26T08:34:09;101578.09;;;-0.02;68.95
77325;BME280;66387;53.440;10.390;2023-02-26T08:36:34;101573.97;;;0.00;69.72
77325;BME280;66387;53.440;10.390;2023-02-26T08:39:00;101584.16;;;0.00;68.62
77325;BME280;66387;53.440;10.390;2023-02-26T08:41:25;101593.16;;;0.11;68.78
77325;BME280;66387;53.440;10.390;2023-02-26T08:43:57;101603.66;;;0.17;68.67
77325;BME280;66387;53.440;10.390;2023-02-26T08:46:23;101604.72;;;0.22;68.66
77325;BME280;66387;53.440;10.390;2023-02-26T08:48:48;101614.75;;;0.18;67.98
77325;BME280;66387;53.440;10.390;2023-02-26T08:51:14;101620.25;;;0.27;68.80
77325;BME280;66387;53.440;10.390;2023-02-26T08:53:39;101616.44;;;0.36;67.95
77325;BME280;66387;53.440;10.390;2023-02-26T08:56:04;101615.88;;;0.43;67.64
77325;BME280;66387;53.440;10.390;2023-02-26T08:58:30;101620.38;;;0.49;67.77
77325;BME280;66387;53.440;10.390;2023-02-26T09:00:55;101617.06;;;0.52;67.12
77325;BME280;66387;53.440;10.390;2023-02-26T09:03:20;101620.97;;;0.63;67.30
77325;BME280;66387;53.440;10.390;2023-02-26T09:05:46;101617.47;;;0.61;66.72
77325;BME280;66387;53.440;10.390;2023-02-26T09:08:11;101633.19;;;0.70;66.49
77325;BME280;66387;53.440;10.390;2023-02-26T09:10:39;101640.81;;;0.68;65.87
77325;BME280;66387;53.440;10.390;2023-02-26T09:13:04;101644.25;;;0.69;66.19
77325;BME280;66387;53.440;10.390;2023-02-26T09:15:30;101645.75;;;0.84;66.45
77325;BME280;66387;53.440;10.390;2023-02-26T09:17:55;101655.09;;;0.84;65.99
77325;BME280;66387;53.440;10.390;2023-02-26T09:20:20;101654.41;;;0.88;65.26
77325;BME280;66387;53.440;10.390;2023-02-26T09:22:46;101660.06;;;1.00;65.52
77325;BME280;66387;53.440;10.390;2023-02-26T09:25:11;101653.34;;;1.23;65.21
77325;BME280;66387;53.440;10.390;2023-02-26T09:27:36;101657.81;;;1.28;64.73
77325;BME280;66387;53.440;10.390;2023-02-26T09:30:03;101658.22;;;1.37;65.16
77325;BME280;66387;53.440;10.390;2023-02-26T09:32:29;101677.00;;;1.38;64.25
77325;BME280;66387;53.440;10.390;2023-02-26T09:34:54;101666.44;;;1.51;63.34
77325;BME280;66387;53.440;10.390;2023-02-26T09:37:19;101674.59;;;1.42;63.78
77325;BME280;66387;53.440;10.390;2023-02-26T09:39:45;101686.41;;;1.60;63.73
77325;BME280;66387;53.440;10.390;2023-02-26T09:42:31;101683.28;;;1.67;64.23
77325;BME280;66387;53.440;10.390;2023-02-26T09:44:59;101687.94;;;1.77;63.57
77325;BME280;66387;53.440;10.390;2023-02-26T09:47:30;101691.31;;;1.98;62.71
77325;BME280;66387;53.440;10.390;2023-02-26T09:50:10;101693.84;;;1.96;62.38
77325;BME280;66387;53.440;10.390;2023-02-26T09:52:44;101699.25;;;2.26;63.24
77325;BME280;66387;53.440;10.390;2023-02-26T09:55:16;101702.97;;;2.34;61.43
77325;BME280;66387;53.440;10.390;2023-02-26T09:57:46;101689.16;;;2.31;59.71
77325;BME280;66387;53.440;10.390;2023-02-26T10:00:36;101698.19;;;2.43;60.17
77325;BME280;66387;53.440;10.390;2023-02-26T10:03:05;101693.06;;;2.43;59.33
77325;BME280;66387;53.440;10.390;2023-02-26T10:08:15;101708.28;;;2.63;58.38
77325;BME280;66387;53.440;10.390;2023-02-26T10:11:16;101695.03;;;2.74;57.37
77325;BME280;66387;53.440;10.390;2023-02-26T10:13:51;101693.59;;;3.06;55.94
77325;BME280;66387;53.440;10.390;2023-02-26T10:16:22;101701.81;;;3.21;54.96
77325;BME280;66387;53.440;10.390;2023-02-26T10:18:57;101710.19;;;3.41;55.47
77325;BME280;66387;53.440;10.390;2023-02-26T10:21:33;101701.78;;;3.72;54.32
77325;BME280;66387;53.440;10.390;2023-02-26T10:24:05;101708.75;;;4.31;51.97
77325;BME280;66387;53.440;10.390;2023-02-26T10:26:38;101712.00;;;4.83;50.17
77325;BME280;66387;53.440;10.390;2023-02-26T10:29:14;101713.81;;;4.28;51.35
77325;BME280;66387;53.440;10.390;2023-02-26T10:37:19;101719.31;;;5.67;50.46
77325;BME280;66387;53.440;10.390;2023-02-26T10:39:57;101722.91;;;5.73;47.88
77325;BME280;66387;53.440;10.390;2023-02-26T10:42:35;101729.69;;;5.70;47.84
77325;BME280;66387;53.440;10.390;2023-02-26T10:47:52;101744.22;;;4.71;50.37
77325;BME280;66387;53.440;10.390;2023-02-26T10:50:21;101736.44;;;4.11;50.81
77325;BME280;66387;53.440;10.390;2023-02-26T10:52:47;101734.03;;;4.45;51.79
77325;BME280;66387;53.440;10.390;2023-02-26T10:55:29;101736.22;;;4.05;51.87
77325;BME280;66387;53.440;10.390;2023-02-26T11:00:40;101732.16;;;5.00;50.30
77325;BME280;66387;53.440;10.390;2023-02-26T11:03:07;101738.03;;;5.94;49.04
77325;BME280;66387;53.440;10.390;2023-02-26T11:05:34;101738.91;;;5.95;49.30
77325;BME280;66387;53.440;10.390;2023-02-26T11:08:09;101737.59;;;5.10;48.96
77325;BME280;66387;53.440;10.390;2023-02-26T11:10:48;101743.03;;;4.89;50.87
77325;BME280;66387;53.440;10.390;2023-02-26T11:13:14;101749.78;;;4.84;50.93
77325;BME280;66387;53.440;10.390;2023-02-26T11:15:41;101745.03;;;5.00;49.96
77325;BME280;66387;53.440;10.390;2023-02-26T11:18:13;101748.88;;;6.17;48.44
77325;BME280;66387;53.440;10.390;2023-02-26T11:20:42;101741.97;;;5.46;49.49
77325;BME280;66387;53.440;10.390;2023-02-26T11:23:16;101748.88;;;4.84;50.88
77325;BME280;66387;53.440;10.390;2023-02-26T11:25:44;101745.63;;;5.88;49.85
77325;BME280;66387;53.440;10.390;2023-02-26T11:28:20;101751.78;;;4.96;50.84
77325;BME280;66387;53.440;10.390;2023-02-26T11:30:46;101758.06;;;6.04;49.46
77325;BME280;66387;53.440;10.390;2023-02-26T11:33:26;101743.97;;;6.27;48.76
77325;BME280;66387;53.440;10.390;2023-02-26T11:35:57;101748.50;;;6.78;48.14
77325;BME280;66387;53.440;10.390;2023-02-26T11:38:25;101747.50;;;7.13;46.41
77325;BME280;66387;53.440;10.390;2023-02-26T11:40:56;101750.84;;;6.66;46.79
77325;BME280;66387;53.440;10.390;2023-02-26T11:43:24;101748.50;;;6.37;47.73
77325;BME280;66387;53.440;10.390;2023-02-26T11:45:58;101748.28;;;7.09;46.80
77325;BME280;66387;53.440;10.390;2023-02-26T11:48:27;101747.47;;;8.12;45.55
77325;BME280;66387;53.440;10.390;2023-02-26T11:50:59;101744.72;;;8.62;44.76
77325;BME280;66387;53.440;10.390;2023-02-26T11:53:34;101741.72;;;7.76;44.82
77325;BME280;66387;53.440;10.390;2023-02-26T11:56:02;101743.66;;;6.53;47.76
77325;BME280;66387;53.440;10.390;2023-02-26T11:58:34;101748.59;;;6.03;48.79
77325;BME280;66387;53.440;10.390;2023-02-26T12:01:01;101742.25;;;5.58;50.19
77325;BME280;66387;53.440;10.390;2023-02-26T12:03:31;101756.94;;;5.27;52.51
77325;BME280;66387;53.440;10.390;2023-02-26T12:05:58;101758.97;;;5.08;52.83
77325;BME280;66387;53.440;10.390;2023-02-26T12:08:36;101747.72;;;5.03;52.91
77325;BME280;66387;53.440;10.390;2023-02-26T12:14:12;101752.59;;;4.35;54.52
77325;BME280;66387;53.440;10.390;2023-02-26T12:17:06;101741.53;;;4.38;56.26
77325;BME280;66387;53.440;10.390;2023-02-26T12:19:53;101743.44;;;4.43;55.82
77325;BME280;66387;53.440;10.390;2023-02-26T12:28:07;101744.09;;;3.83;58.20
77325;BME280;66387;53.440;10.390;2023-02-26T12:31:07;101757.16;;;4.74;57.38
77325;BME280;66387;53.440;10.390;2023-02-26T12:33:50;101760.03;;;4.55;57.59
77325;BME280;66387;53.440;10.390;2023-02-26T12:36:37;101754.16;;;4.30;56.96
77325;BME280;66387;53.440;10.390;2023-02-26T12:41:52;101757.56;;;5.19;56.76
77325;BME280;66387;53.440;10.390;2023-02-26T12:47:22;101750.16;;;5.97;53.66
77325;BME280;66387;53.440;10.390;2023-02-26T12:50:02;101748.97;;;5.18;53.89
77325;BME280;66387;53.440;10.390;2023-02-26T12:52:46;101758.59;;;4.94;55.04
77325;BME280;66387;53.440;10.390;2023-02-26T12:55:29;101758.53;;;4.33;56.36
77325;BME280;66387;53.440;10.390;2023-02-26T13:01:07;101769.78;;;4.10;57.12
77325;BME280;66387;53.440;10.390;2023-02-26T13:03:51;101761.66;;;3.96;57.87
77325;BME280;66387;53.440;10.390;2023-02-26T13:12:06;101769.16;;;3.65;59.09
77325;BME280;66387;53.440;10.390;2023-02-26T13:20:17;101775.00;;;3.35;63.14
77325;BME280;66387;53.440;10.390;2023-02-26T13:22:47;101772.22;;;3.28;62.00
77325;BME280;66387;53.440;10.390;2023-02-26T13:25:22;101777.44;;;3.31;62.46
77325;BME280;66387;53.440;10.390;2023-02-26T13:27:50;101776.13;;;3.42;63.37
77325;BME280;66387;53.440;10.390;2023-02-26T13:30:33;101770.09;;;3.93;62.26
77325;BME280;66387;53.440;10.390;2023-02-26T13:32:59;101775.56;;;4.03;62.95
77325;BME280;66387;53.440;10.390;2023-02-26T13:35:32;101773.31;;;4.13;59.83
77325;BME280;66387;53.440;10.390;2023-02-26T13:38:01;101762.78;;;4.04;60.90
77325;BME280;66387;53.440;10.390;2023-02-26T13:40:38;101767.16;;;4.08;60.42
77325;BME280;66387;53.440;10.390;2023-02-26T13:43:23;101768.94;;;4.66;59.26
77325;BME280;66387;53.440;10.390;2023-02-26T13:51:35;101760.75;;;4.79;58.78
77325;BME280;66387;53.440;10.390;2023-02-26T13:54:28;101764.63;;;4.94;58.03
77325;BME280;66387;53.440;10.390;2023-02-26T14:00:09;101758.38;;;4.86;57.79
77325;BME280;66387;53.440;10.390;2023-02-26T14:08:24;101759.13;;;4.82;58.82
77325;BME280;66387;53.440;10.390;2023-02-26T14:11:02;101758.22;;;5.12;56.65
77325;BME280;66387;53.440;10.390;2023-02-26T14:13:37;101759.06;;;4.81;56.17
77325;BME280;66387;53.440;10.390;2023-02-26T14:16:12;101761.84;;;4.87;56.64